South Beach, Oregon
Current Conditions -  °F | °C
As of 12:35 AM on Tuesday 21 Oct 2014 (Local Time) from KONP Reporting Station
Haze Haze  
Wind Chill: 55°   Ceiling: 1200
Heat Index: 55°   Visibility: 5mi
Dew Point: 54°   Wind: 14mph
Humidity: 94%   Direction: 180°S
Pressure: 29.91"   Gusts: 23mph
Location:  44.61°N, 124.05°W
Report Text: KONP 210735Z AUTO 18012G20KT 5SM BR BKN012 BKN044 BKN065 13/12 A2991 RMK AO2
Loading
Personal Weather Stations






























Interactive Weather Map
Tropical Storm Tracking
New forecast layout! Learn more

10-Day Weather Forecast

Advertisements
Track Severe Weather on mobile